Allen, South Dakota
Current Conditions -  °F | °C
As of 3:52 AM on Sunday 23 Nov 2014 (Local Time) from KIEN Reporting Station
Clear Clear  
Wind Chill: -2°   Ceiling: Unl
Heat Index:   Visibility: 10mi
Dew Point: -1°   Wind: 8mph
Humidity: 85%   Direction: 290°WNW
Pressure: 29.63"   Gusts: NA
Location:  43.28°N, 101.93°W
Report Text: KIEN 231052Z AUTO 29007KT 10SM CLR 02/M01 A2963 RMK AO2 SLP045 T00171006
Loading
Personal Weather Stations






























Interactive Weather Map New forecast layout! Learn more

10-Day Weather Forecast

Advertisements
Track Severe Weather on mobile